Time;durP1;ratioP1;P1;durP2;ratioP2;P2;SDS_P1;SDS_P2;PMS_P1;PMS_P2;Temp;Humidity;BMP_temperature;BMP_pressure;BME280_temperature;BME280_humidity;BME280_pressure;Samples;Min_cycle;Max_cycle;Signal;HPM_P1;HPM_P2
2023/05/19 00:01:13;;;;;;;4.60;1.93;;;10.00;1.00;;;;;;6123858;23;20294;-83
2023/05/19 00:03:51;;;;;;;3.97;1.93;;;10.00;1.00;;;;;;6150457;23;20259;-83
2023/05/19 00:06:26;;;;;;;5.50;1.73;;;10.30;1.00;;;;;;6123350;23;20179;-84
2023/05/19 00:09:00;;;;;;;4.63;2.03;;;10.00;1.00;;;;;;6149877;23;20205;-79
2023/05/19 00:11:27;;;;;;;3.73;1.77;;;10.00;1.00;;;;;;6123751;23;20511;-79
2023/05/19 00:13:57;;;;;;;4.53;1.70;;;9.90;1.00;;;;;;6149547;23;20499;-79
2023/05/19 00:16:25;;;;;;;4.57;2.00;;;9.90;1.00;;;;;;6149766;23;20140;-80
2023/05/19 00:18:52;;;;;;;4.10;1.87;;;9.90;1.00;;;;;;6123275;23;20671;-79
2023/05/19 00:21:17;;;;;;;6.03;2.00;;;9.80;1.00;;;;;;6149980;23;20152;-84
2023/05/19 00:23:43;;;;;;;4.40;1.60;;;9.80;1.00;;;;;;6123230;23;20187;-80
2023/05/19 00:26:10;;;;;;;4.70;1.70;;;9.80;1.00;;;;;;6124014;23;20775;-80
2023/05/19 00:28:35;;;;;;;4.60;1.70;;;9.70;1.00;;;;;;6149627;23;20234;-79
2023/05/19 00:31:03;;;;;;;5.23;1.73;;;9.70;1.00;;;;;;6123353;23;20386;-82
2023/05/19 00:33:29;;;;;;;4.20;1.80;;;9.60;1.00;;;;;;6123845;23;20178;-81
2023/05/19 00:35:54;;;;;;;4.70;1.90;;;9.60;1.00;;;;;;6149996;23;20160;-79
2023/05/19 00:38:20;;;;;;;3.53;1.47;;;9.50;1.00;;;;;;6123496;23;20282;-82
2023/05/19 00:40:46;;;;;;;5.70;2.30;;;9.40;1.00;;;;;;6123747;23;20180;-80
2023/05/19 00:43:12;;;;;;;5.63;1.83;;;9.30;1.00;;;;;;6149421;23;20240;-79
2023/05/19 00:45:37;;;;;;;7.87;2.20;;;9.30;1.00;;;;;;6123756;23;20186;-79
2023/05/19 00:48:03;;;;;;;4.10;1.83;;;9.20;1.00;;;;;;6123198;23;20182;-81
2023/05/19 00:50:28;;;;;;;5.30;2.20;;;9.20;1.00;;;;;;6151838;23;20190;-82
2023/05/19 00:52:55;;;;;;;5.47;2.10;;;9.20;1.00;;;;;;6152229;23;20155;-82
2023/05/19 00:55:25;;;;;;;6.70;2.10;;;9.20;1.00;;;;;;6125691;23;20195;-81
2023/05/19 00:57:51;;;;;;;6.00;2.30;;;9.20;1.00;;;;;;6125883;23;20164;-82
2023/05/19 01:00:17;;;;;;;7.13;2.13;;;9.20;1.00;;;;;;6152008;23;20184;-82
2023/05/19 01:02:43;;;;;;;4.13;1.83;;;9.20;1.00;;;;;;6151735;23;20237;-82
2023/05/19 01:05:09;;;;;;;4.93;1.87;;;9.30;1.00;;;;;;6151292;23;20586;-81
2023/05/19 01:07:35;;;;;;;5.30;2.03;;;9.50;1.00;;;;;;6152763;23;20250;-78
2023/05/19 01:10:01;;;;;;;3.90;1.80;;;9.50;1.00;;;;;;6126085;23;20207;-79
2023/05/19 01:12:27;;;;;;;5.03;1.93;;;9.50;1.00;;;;;;6151448;23;20179;-78
2023/05/19 01:14:53;;;;;;;2.13;1.60;;;9.30;1.00;;;;;;6151890;23;20616;-81
2023/05/19 01:17:33;;;;;;;5.83;2.27;;;9.20;1.00;;;;;;6152168;23;20160;-79
2023/05/19 01:20:11;;;;;;;5.77;2.17;;;9.10;1.00;;;;;;6152174;23;20175;-79
2023/05/19 01:22:53;;;;;;;7.53;2.27;;;9.10;1.00;;;;;;6151441;23;20619;-79
2023/05/19 01:25:31;;;;;;;3.53;1.80;;;9.00;1.00;;;;;;6125589;23;20210;-80
2023/05/19 01:28:10;;;;;;;4.00;1.97;;;9.00;1.00;;;;;;6151940;23;20218;-80
2023/05/19 01:30:39;;;;;;;4.93;2.13;;;9.00;1.00;;;;;;6151967;23;20136;-81
2023/05/19 01:33:07;;;;;;;3.93;2.17;;;9.00;1.00;;;;;;6125119;23;20170;-80
2023/05/19 01:35:36;;;;;;;6.27;2.00;;;9.10;1.00;;;;;;6151377;23;20242;-81
2023/05/19 01:38:03;;;;;;;3.53;2.20;;;9.10;1.00;;;;;;6125068;23;20513;-79
2023/05/19 01:40:30;;;;;;;3.93;1.77;;;9.00;1.00;;;;;;6124976;23;20190;-79
2023/05/19 01:42:58;;;;;;;5.20;1.90;;;9.00;1.00;;;;;;6151534;23;20262;-81
2023/05/19 01:45:25;;;;;;;5.17;1.90;;;9.00;1.00;;;;;;6151253;23;20152;-81
2023/05/19 01:47:56;;;;;;;5.77;2.40;;;9.00;1.00;;;;;;6124558;23;20199;-82
2023/05/19 01:50:22;;;;;;;5.57;2.63;;;9.00;1.00;;;;;;6151114;23;20230;-78
2023/05/19 01:52:48;;;;;;;5.43;2.10;;;8.90;1.00;;;;;;6150837;23;20596;-78
2023/05/19 01:55:13;;;;;;;4.67;2.50;;;8.90;1.00;;;;;;6150407;23;20531;-78
2023/05/19 01:57:58;;;;;;;2.50;1.73;;;9.00;1.00;;;;;;6124609;23;20218;-83
2023/05/19 02:00:52;;;;;;;3.53;2.07;;;9.00;1.00;;;;;;6151170;23;20171;-80
2023/05/19 02:03:43;;;;;;;5.00;2.53;;;9.10;1.00;;;;;;6149982;23;20233;-82
2023/05/19 02:06:24;;;;;;;5.03;1.80;;;9.10;1.00;;;;;;6124224;23;20186;-79
2023/05/19 02:09:10;;;;;;;6.03;2.33;;;9.10;1.00;;;;;;6124514;23;20175;-84
2023/05/19 02:11:40;;;;;;;5.00;2.47;;;9.00;1.00;;;;;;6150718;23;20144;-84
2023/05/19 02:14:20;;;;;;;3.93;1.80;;;9.10;1.00;;;;;;6124619;23;20191;-83
2023/05/19 02:16:47;;;;;;;6.33;2.13;;;9.00;1.00;;;;;;6123817;23;20644;-85
2023/05/19 02:19:27;;;;;;;3.70;2.00;;;9.00;1.00;;;;;;6124351;23;20222;-80
2023/05/19 02:21:52;;;;;;;6.27;2.53;;;9.00;1.00;;;;;;6150603;23;20163;-81
2023/05/19 02:24:19;;;;;;;6.47;2.57;;;8.90;1.00;;;;;;6150470;23;20684;-79
2023/05/19 02:26:45;;;;;;;4.40;2.20;;;8.80;1.00;;;;;;6150733;23;20163;-83
2023/05/19 02:29:10;;;;;;;3.77;2.20;;;8.80;1.00;;;;;;6124168;23;20673;-84
2023/05/19 02:31:36;;;;;;;4.50;2.47;;;8.70;1.00;;;;;;6150284;23;20152;-82
2023/05/19 02:34:02;;;;;;;3.10;2.00;;;8.70;1.00;;;;;;6151005;23;20619;-79
2023/05/19 02:36:29;;;;;;;4.67;2.50;;;8.70;1.00;;;;;;6124722;23;20715;-81
2023/05/19 02:38:55;;;;;;;5.77;2.73;;;8.70;1.00;;;;;;6124477;23;20624;-82
2023/05/19 02:41:21;;;;;;;5.43;2.70;;;8.60;1.00;;;;;;6150917;23;20189;-81
2023/05/19 02:43:46;;;;;;;6.20;2.60;;;8.50;1.00;;;;;;6124295;23;20183;-82
2023/05/19 02:46:12;;;;;;;4.93;2.63;;;8.60;1.00;;;;;;6150602;23;20152;-79
2023/05/19 02:48:37;;;;;;;4.90;2.87;;;8.60;1.00;;;;;;6150307;23;20183;-82
2023/05/19 02:51:03;;;;;;;6.10;2.80;;;8.50;1.00;;;;;;6124239;23;20294;-83
2023/05/19 02:53:31;;;;;;;3.73;2.47;;;8.50;1.00;;;;;;6150409;23;20623;-85
2023/05/19 02:55:57;;;;;;;3.97;2.30;;;8.40;1.00;;;;;;6124455;23;20166;-82
2023/05/19 02:58:22;;;;;;;4.27;2.63;;;8.40;1.00;;;;;;6124529;23;20159;-82
2023/05/19 03:00:48;;;;;;;5.90;2.77;;;8.40;1.00;;;;;;6150463;23;20210;-83
2023/05/19 03:03:13;;;;;;;3.80;2.10;;;8.20;1.00;;;;;;6150152;23;20558;-79
2023/05/19 03:05:40;;;;;;;5.17;2.70;;;8.20;1.00;;;;;;6151030;23;20175;-81
2023/05/19 03:08:05;;;;;;;5.90;2.77;;;8.00;1.00;;;;;;6124708;23;20490;-81
2023/05/19 03:10:31;;;;;;;6.57;2.80;;;8.00;1.00;;;;;;6150269;23;20203;-82
2023/05/19 03:12:56;;;;;;;4.10;2.30;;;7.90;1.00;;;;;;6150107;23;20607;-79
2023/05/19 03:15:22;;;;;;;6.47;2.90;;;7.90;1.00;;;;;;6123498;23;20287;-79
2023/05/19 03:17:47;;;;;;;5.70;2.87;;;7.80;1.00;;;;;;6150057;23;20156;-82
2023/05/19 03:20:14;;;;;;;4.03;2.30;;;7.70;1.00;;;;;;6124318;23;20887;-79
2023/05/19 03:22:40;;;;;;;4.00;2.30;;;7.90;1.00;;;;;;6150335;23;20179;-84
2023/05/19 03:25:06;;;;;;;4.20;2.87;;;7.80;1.00;;;;;;6123684;23;20162;-79
2023/05/19 03:27:31;;;;;;;3.03;2.43;;;7.70;1.00;;;;;;6123903;23;20166;-79
2023/05/19 03:29:57;;;;;;;4.77;3.10;;;7.70;1.00;;;;;;6123855;23;20254;-82
2023/05/19 03:32:22;;;;;;;5.53;3.00;;;7.60;1.00;;;;;;6123423;23;20167;-84
2023/05/19 03:34:48;;;;;;;4.73;2.80;;;7.50;1.00;;;;;;6123900;23;20155;-79
2023/05/19 03:37:13;;;;;;;5.37;3.00;;;7.40;1.00;;;;;;6123262;23;20281;-83
2023/05/19 03:39:39;;;;;;;6.77;3.20;;;7.40;1.10;;;;;;6124190;23;20558;-78
2023/05/19 03:42:05;;;;;;;4.47;3.20;;;7.30;13.40;;;;;;6149865;23;20518;-82
2023/05/19 03:44:30;;;;;;;5.50;3.10;;;7.30;26.40;;;;;;6123366;23;20188;-79
2023/05/19 03:46:56;;;;;;;5.90;3.17;;;7.20;37.80;;;;;;6123433;23;20190;-79
2023/05/19 03:49:21;;;;;;;5.43;2.80;;;7.20;43.00;;;;;;6123464;23;20176;-79
2023/05/19 03:51:47;;;;;;;4.37;2.70;;;7.20;34.80;;;;;;6149773;23;20206;-82
2023/05/19 03:54:12;;;;;;;4.40;2.90;;;7.20;39.50;;;;;;6149663;23;20163;-79
2023/05/19 03:56:41;;;;;;;5.00;2.80;;;7.30;35.50;;;;;;6123763;23;20159;-81
2023/05/19 03:59:09;;;;;;;4.93;3.20;;;7.40;28.00;;;;;;6123185;23;20603;-82
2023/05/19 04:01:35;;;;;;;7.10;3.30;;;7.40;24.70;;;;;;6123207;23;20174;-85
2023/05/19 04:04:01;;;;;;;5.27;2.97;;;7.40;4.00;;;;;;6123914;23;20219;-81
2023/05/19 04:06:27;;;;;;;7.27;3.20;;;7.50;1.70;;;;;;6122959;23;20691;-81
2023/05/19 04:08:52;;;;;;;5.17;3.10;;;7.50;2.20;;;;;;6123505;23;20208;-79
2023/05/19 04:11:21;;;;;;;4.90;2.77;;;7.60;1.00;;;;;;6149666;23;20242;-79
2023/05/19 04:13:46;;;;;;;3.60;3.10;;;7.80;1.00;;;;;;6123172;23;20222;-82
2023/05/19 04:16:12;;;;;;;5.17;2.70;;;7.70;1.00;;;;;;6148511;23;20152;-81
2023/05/19 04:18:38;;;;;;;5.23;2.57;;;7.70;1.00;;;;;;6148991;23;20654;-82
2023/05/19 04:21:04;;;;;;;6.00;2.70;;;7.80;1.00;;;;;;6148903;23;20159;-82
2023/05/19 04:23:29;;;;;;;5.13;3.00;;;8.20;1.00;;;;;;6149883;23;20818;-83
2023/05/19 04:25:56;;;;;;;6.27;3.07;;;8.10;1.00;;;;;;6124714;23;20187;-84
2023/05/19 04:28:22;;;;;;;4.80;2.83;;;8.30;1.00;;;;;;6124524;23;20186;-81
2023/05/19 04:30:49;;;;;;;6.23;2.97;;;8.60;1.00;;;;;;6124572;23;20164;-83
2023/05/19 04:33:15;;;;;;;4.03;2.60;;;8.70;1.00;;;;;;6151239;23;20183;-81
2023/05/19 04:35:42;;;;;;;5.43;2.40;;;8.90;1.00;;;;;;6150599;23;20549;-82
2023/05/19 04:38:08;;;;;;;7.13;2.70;;;9.00;1.00;;;;;;6124173;23;20236;-79
2023/05/19 04:40:34;;;;;;;6.07;2.67;;;9.20;1.00;;;;;;6124524;23;20635;-79
2023/05/19 04:43:00;;;;;;;3.77;2.47;;;9.40;1.00;;;;;;6124698;23;20191;-82
2023/05/19 04:45:26;;;;;;;6.60;2.83;;;9.50;1.00;;;;;;6150186;23;20465;-79
2023/05/19 04:47:56;;;;;;;8.33;2.70;;;9.60;1.00;;;;;;6150112;23;20211;-84
2023/05/19 04:50:22;;;;;;;5.83;2.70;;;9.80;1.00;;;;;;6150722;23;20195;-79
2023/05/19 04:52:48;;;;;;;3.90;2.60;;;9.90;1.00;;;;;;6149908;23;20183;-79
2023/05/19 04:55:14;;;;;;;5.50;2.60;;;10.60;1.00;;;;;;6149955;23;20163;-82
2023/05/19 04:57:40;;;;;;;3.77;2.30;;;10.20;1.00;;;;;;6123931;23;20635;-82
2023/05/19 05:00:08;;;;;;;4.07;2.50;;;10.30;1.00;;;;;;6149811;23;20175;-79
2023/05/19 05:02:34;;;;;;;3.97;2.10;;;10.40;1.00;;;;;;6123660;23;22043;-81
2023/05/19 05:04:59;;;;;;;3.37;2.20;;;10.60;1.00;;;;;;6124181;23;20156;-79
2023/05/19 05:07:25;;;;;;;4.30;2.60;;;10.80;1.00;;;;;;6123632;23;20171;-82
2023/05/19 05:09:50;;;;;;;6.68;2.55;;;11.00;1.00;;;;;;6149422;23;20180;-83
2023/05/19 05:12:20;;;;;;;5.15;2.72;;;11.50;1.00;;;;;;6123087;23;20215;-81
2023/05/19 05:14:46;;;;;;;3.25;2.10;;;12.30;1.00;;;;;;6122668;23;20183;-82
2023/05/19 05:17:12;;;;;;;4.07;2.40;;;12.60;1.00;;;;;;6149805;23;20478;-80
2023/05/19 05:19:39;;;;;;;4.13;1.95;;;13.30;1.00;;;;;;6123679;23;20180;-82
2023/05/19 05:22:05;;;;;;;4.63;2.45;;;14.30;1.00;;;;;;6122489;23;20159;-82
2023/05/19 05:24:31;;;;;;;4.82;2.03;;;14.50;1.00;;;;;;6122922;23;20223;-84
2023/05/19 05:26:57;;;;;;;4.22;2.55;;;14.20;1.00;;;;;;6149518;23;20203;-81
2023/05/19 05:29:23;;;;;;;4.20;2.10;;;13.70;1.00;;;;;;6123493;23;20180;-81
2023/05/19 05:31:49;;;;;;;6.75;2.42;;;13.30;1.00;;;;;;6149674;23;20156;-85
2023/05/19 05:34:15;;;;;;;5.05;2.58;;;13.00;1.00;;;;;;6149559;23;20319;-81
2023/05/19 05:36:40;;;;;;;4.93;2.60;;;12.70;1.00;;;;;;6148991;23;20175;-80
2023/05/19 05:39:06;;;;;;;4.50;2.70;;;12.60;1.00;;;;;;6149274;23;20175;-83
2023/05/19 05:41:36;;;;;;;4.35;1.98;;;12.60;1.00;;;;;;6149709;23;20202;-82
2023/05/19 05:44:02;;;;;;;5.78;2.53;;;12.60;1.00;;;;;;6123178;23;20183;-79
2023/05/19 05:46:28;;;;;;;5.63;2.42;;;12.50;1.00;;;;;;6123407;23;20206;-80
2023/05/19 05:48:54;;;;;;;4.97;2.50;;;12.60;1.00;;;;;;6149674;23;20172;-82
2023/05/19 05:51:21;;;;;;;5.55;2.65;;;12.70;1.00;;;;;;6149278;23;20148;-83
2023/05/19 05:53:52;;;;;;;6.90;2.25;;;13.10;1.00;;;;;;6123336;23;20160;-82
2023/05/19 05:56:18;;;;;;;6.97;2.40;;;13.00;1.00;;;;;;6122531;23;20159;-82
2023/05/19 05:58:43;;;;;;;4.78;2.20;;;13.20;1.00;;;;;;6123918;23;20246;-80
2023/05/19 06:01:09;;;;;;;4.88;2.20;;;13.70;1.00;;;;;;6149329;23;20586;-79
2023/05/19 06:03:37;;;;;;;5.10;2.05;;;14.00;1.00;;;;;;6149483;23;20203;-83
2023/05/19 06:06:03;;;;;;;5.68;2.20;;;14.40;1.00;;;;;;6123641;23;20170;-79
2023/05/19 06:08:29;;;;;;;4.28;2.05;;;14.90;1.00;;;;;;6149254;23;20151;-79
2023/05/19 06:10:55;;;;;;;3.55;1.90;;;15.20;1.00;;;;;;6123468;23;20251;-81
2023/05/19 06:13:22;;;;;;;5.18;2.42;;;15.20;1.00;;;;;;6148722;23;20167;-82
2023/05/19 06:15:49;;;;;;;3.83;1.90;;;15.50;1.00;;;;;;6122313;23;20557;-83
2023/05/19 06:18:15;;;;;;;6.82;2.10;;;16.10;1.00;;;;;;6148608;23;20566;-79
2023/05/19 06:20:40;;;;;;;4.55;1.90;;;16.60;1.00;;;;;;6148756;23;20162;-82
2023/05/19 06:23:06;;;;;;;5.53;2.03;;;17.80;1.00;;;;;;6122394;23;20187;-82
2023/05/19 06:25:31;;;;;;;5.40;1.67;;;17.00;1.00;;;;;;6122382;23;20170;-82
2023/05/19 06:27:57;;;;;;;4.72;2.30;;;17.70;1.00;;;;;;6122639;23;20170;-81
2023/05/19 06:30:23;;;;;;;3.88;1.70;;;17.60;1.00;;;;;;6122662;23;20624;-80
2023/05/19 06:32:48;;;;;;;3.42;2.00;;;17.20;1.00;;;;;;6148177;23;20703;-83
2023/05/19 06:35:14;;;;;;;6.63;2.10;;;16.90;1.00;;;;;;6121503;23;20163;-82
2023/05/19 06:37:39;;;;;;;4.88;2.20;;;16.40;1.00;;;;;;6146291;23;20178;-81
2023/05/19 06:40:06;;;;;;;6.78;2.40;;;17.00;1.00;;;;;;6146827;23;20627;-81
2023/05/19 06:42:31;;;;;;;4.03;1.90;;;17.40;1.00;;;;;;6120560;23;20168;-81
2023/05/19 06:44:57;;;;;;;6.30;2.08;;;18.30;1.00;;;;;;6146356;23;20158;-81
2023/05/19 06:47:22;;;;;;;4.35;1.80;;;18.80;1.00;;;;;;6145764;23;20607;-81
2023/05/19 06:49:49;;;;;;;5.05;2.15;;;18.90;1.00;;;;;;6147059;23;20616;-81
2023/05/19 06:52:15;;;;;;;4.00;1.80;;;19.60;1.00;;;;;;6120821;23;20160;-82
2023/05/19 06:54:41;;;;;;;4.03;2.05;;;20.50;1.00;;;;;;6120047;23;20531;-81
2023/05/19 06:57:07;;;;;;;4.75;2.00;;;20.20;1.00;;;;;;6146780;23;20163;-82
2023/05/19 06:59:32;;;;;;;3.55;1.75;;;21.50;1.00;;;;;;6146359;23;20176;-81
2023/05/19 07:01:58;;;;;;;4.80;1.83;;;23.00;1.00;;;;;;6146752;23;20254;-81
2023/05/19 07:04:23;;;;;;;5.25;1.80;;;24.80;1.00;;;;;;6120485;23;20569;-81
2023/05/19 07:06:49;;;;;;;3.53;1.92;;;26.20;1.00;;;;;;6146684;23;20218;-84
2023/05/19 07:09:15;;;;;;;6.40;2.10;;;27.10;1.00;;;;;;6120145;23;20527;-82
2023/05/19 07:11:40;;;;;;;3.70;2.08;;;27.20;1.00;;;;;;6120118;23;20493;-82
2023/05/19 07:14:06;;;;;;;3.40;1.95;;;27.00;1.00;;;;;;6119645;23;20175;-82
2023/05/19 07:16:31;;;;;;;3.60;1.90;;;26.40;1.00;;;;;;6146055;23;20163;-83
2023/05/19 07:18:57;;;;;;;5.20;2.10;;;26.30;1.00;;;;;;6119875;23;20520;-81
2023/05/19 07:21:22;;;;;;;4.28;2.10;;;24.70;1.00;;;;;;6146512;23;20534;-81
2023/05/19 07:23:48;;;;;;;3.35;1.77;;;23.20;1.00;;;;;;6119850;23;20198;-83
2023/05/19 07:26:14;;;;;;;4.43;2.10;;;21.60;1.00;;;;;;6120312;23;20151;-81
2023/05/19 07:28:41;;;;;;;3.47;1.88;;;19.90;1.00;;;;;;6119305;23;20502;-82
2023/05/19 07:31:06;;;;;;;3.28;1.55;;;18.20;1.00;;;;;;6119799;23;20183;-80
2023/05/19 07:33:32;;;;;;;3.45;1.60;;;18.60;1.00;;;;;;6146572;23;20526;-82
2023/05/19 07:35:57;;;;;;;5.90;1.95;;;18.60;1.00;;;;;;6119610;23;20167;-81
2023/05/19 07:38:23;;;;;;;5.00;2.03;;;17.20;1.00;;;;;;6119680;23;20234;-82
2023/05/19 07:40:49;;;;;;;3.25;1.90;;;16.60;1.00;;;;;;6118628;23;20206;-81
2023/05/19 07:43:14;;;;;;;5.70;2.03;;;16.50;1.00;;;;;;6120026;23;20195;-81
2023/05/19 07:45:40;;;;;;;6.82;2.13;;;16.50;1.00;;;;;;6145752;23;20198;-82
2023/05/19 07:48:06;;;;;;;4.93;1.63;;;16.20;1.00;;;;;;6120191;23;20163;-81
2023/05/19 07:50:32;;;;;;;5.45;2.15;;;16.30;1.00;;;;;;6145616;23;20682;-81
2023/05/19 07:52:57;;;;;;;4.22;1.92;;;16.50;1.00;;;;;;6146211;23;20155;-81
2023/05/19 07:55:23;;;;;;;3.35;1.90;;;16.50;1.00;;;;;;6145997;23;20239;-82
2023/05/19 07:57:49;;;;;;;3.05;2.00;;;16.00;1.00;;;;;;6118962;23;20620;-82
2023/05/19 08:00:16;;;;;;;7.18;2.05;;;16.00;1.00;;;;;;6119782;23;20582;-84
2023/05/19 08:02:42;;;;;;;3.58;1.80;;;16.20;1.00;;;;;;6118885;23;20227;-81
2023/05/19 08:05:08;;;;;;;4.18;1.98;;;16.20;1.00;;;;;;6145957;23;20152;-81
2023/05/19 08:07:35;;;;;;;4.93;1.52;;;16.10;1.00;;;;;;6120181;23;20503;-81
2023/05/19 08:10:00;;;;;;;4.03;1.77;;;16.30;1.00;;;;;;6119956;23;20180;-81
2023/05/19 08:12:26;;;;;;;3.30;1.80;;;16.50;1.00;;;;;;6145253;23;20159;-81
2023/05/19 08:14:51;;;;;;;12.23;2.30;;;16.50;1.00;;;;;;6119585;23;20433;-81
2023/05/19 08:17:17;;;;;;;4.25;1.70;;;16.60;1.00;;;;;;6145751;23;20156;-82
2023/05/19 08:19:43;;;;;;;6.45;1.67;;;17.00;1.00;;;;;;6145721;23;20171;-81
2023/05/19 08:22:08;;;;;;;4.57;1.80;;;16.80;1.00;;;;;;6119303;23;20159;-82
2023/05/19 08:24:34;;;;;;;3.58;2.03;;;17.60;1.00;;;;;;6119109;23;20966;-81
2023/05/19 08:26:59;;;;;;;4.07;2.00;;;17.00;1.00;;;;;;6119765;23;20160;-81
2023/05/19 08:29:25;;;;;;;4.43;2.20;;;16.90;1.00;;;;;;6145447;23;20178;-83
2023/05/19 08:31:51;;;;;;;4.10;1.90;;;17.00;1.00;;;;;;6146315;23;20155;-84
2023/05/19 08:34:21;;;;;;;2.78;1.40;;;17.80;1.00;;;;;;6119559;23;20199;-81
2023/05/19 08:36:46;;;;;;;3.05;2.10;;;17.10;1.00;;;;;;6145518;23;20179;-81
2023/05/19 08:39:13;;;;;;;3.95;1.70;;;17.30;1.00;;;;;;6119522;23;20183;-82
2023/05/19 08:41:38;;;;;;;3.75;1.77;;;16.80;1.00;;;;;;6145252;23;20155;-82
2023/05/19 08:44:04;;;;;;;3.13;1.63;;;16.80;1.00;;;;;;6144770;23;20183;-81
2023/05/19 08:46:30;;;;;;;2.58;1.50;;;16.90;1.00;;;;;;6119350;23;20187;-82
2023/05/19 08:49:06;;;;;;;3.90;1.80;;;16.80;1.00;;;;;;6144828;23;20246;-82
2023/05/19 08:51:41;;;;;;;4.25;1.50;;;16.80;1.00;;;;;;6144854;23;20592;-82
2023/05/19 08:54:13;;;;;;;2.65;1.60;;;16.70;1.00;;;;;;6118454;23;20162;-82
2023/05/19 08:56:40;;;;;;;2.20;1.38;;;16.90;1.00;;;;;;6117937;23;20160;-82
2023/05/19 08:59:07;;;;;;;3.30;1.58;;;17.80;1.00;;;;;;6144435;23;20620;-81
2023/05/19 09:01:32;;;;;;;4.30;1.70;;;17.00;1.00;;;;;;6145010;23;20155;-81
2023/05/19 09:03:58;;;;;;;2.60;1.80;;;17.60;1.00;;;;;;6118574;23;20188;-81
2023/05/19 09:06:25;;;;;;;4.35;1.42;;;17.40;1.00;;;;;;6144774;23;20918;-82
2023/05/19 09:08:50;;;;;;;3.35;1.90;;;17.40;1.00;;;;;;6118410;23;20603;-81
2023/05/19 09:11:16;;;;;;;3.03;1.30;;;17.50;1.00;;;;;;6146791;23;20159;-81
2023/05/19 09:13:41;;;;;;;4.00;1.38;;;17.90;1.00;;;;;;6147170;23;20156;-81
2023/05/19 09:16:07;;;;;;;4.55;1.63;;;18.20;1.00;;;;;;6146768;23;20592;-81
2023/05/19 09:18:33;;;;;;;2.22;1.75;;;17.30;1.00;;;;;;6120319;23;20537;-84
2023/05/19 09:21:01;;;;;;;3.55;1.80;;;17.70;1.00;;;;;;6119983;23;20560;-81
2023/05/19 09:23:32;;;;;;;3.92;1.65;;;17.00;1.00;;;;;;6121050;23;20257;-82
2023/05/19 09:26:06;;;;;;;2.35;1.60;;;17.60;1.00;;;;;;6119389;23;20231;-81
2023/05/19 09:28:33;;;;;;;3.80;2.10;;;16.70;1.00;;;;;;6146397;23;20176;-82
2023/05/19 09:30:59;;;;;;;3.78;1.73;;;16.90;1.00;;;;;;6120071;23;20576;-82
2023/05/19 09:33:25;;;;;;;4.32;1.73;;;17.10;1.00;;;;;;6120433;23;20167;-81
2023/05/19 09:35:56;;;;;;;4.15;1.90;;;17.50;1.00;;;;;;6120643;23;20677;-81
2023/05/19 09:38:25;;;;;;;2.47;1.50;;;17.10;1.00;;;;;;6147088;23;20534;-82
2023/05/19 09:40:52;;;;;;;2.97;1.50;;;17.50;1.00;;;;;;6146351;23;20239;-81
2023/05/19 09:43:18;;;;;;;1.90;1.60;;;17.30;1.00;;;;;;6146744;23;20456;-84
2023/05/19 09:45:43;;;;;;;2.83;1.60;;;17.30;1.00;;;;;;6120266;23;20591;-80
2023/05/19 09:48:09;;;;;;;3.80;1.40;;;17.40;1.00;;;;;;6120831;23;20218;-80
2023/05/19 09:50:35;;;;;;;1.80;1.38;;;17.60;1.00;;;;;;6120239;23;20176;-84
2023/05/19 09:53:01;;;;;;;1.67;1.40;;;18.00;1.00;;;;;;6119857;23;20554;-81
2023/05/19 09:55:28;;;;;;;3.17;1.52;;;18.00;1.00;;;;;;6146099;23;20178;-81
2023/05/19 09:57:56;;;;;;;2.42;1.52;;;18.10;1.00;;;;;;6146180;23;20194;-81
2023/05/19 10:00:22;;;;;;;3.45;1.30;;;18.20;1.00;;;;;;6119858;23;20192;-81
2023/05/19 10:02:49;;;;;;;2.75;1.50;;;18.00;1.00;;;;;;6120060;23;20194;-81
2023/05/19 10:05:18;;;;;;;3.22;1.58;;;18.70;1.00;;;;;;6146862;23;20179;-81
2023/05/19 10:07:47;;;;;;;2.10;1.55;;;18.20;1.00;;;;;;6119519;23;20184;-81
2023/05/19 10:10:13;;;;;;;2.35;1.25;;;18.10;1.00;;;;;;6145744;23;20168;-81
2023/05/19 10:12:40;;;;;;;1.35;1.20;;;18.10;1.00;;;;;;6119766;23;20639;-81
2023/05/19 10:15:10;;;;;;;1.45;1.25;;;18.20;1.00;;;;;;6145770;23;20152;-81
2023/05/19 10:17:38;;;;;;;1.92;1.10;;;18.00;1.00;;;;;;6119717;23;20166;-83
2023/05/19 10:20:06;;;;;;;2.38;1.27;;;18.20;1.00;;;;;;6119379;23;20262;-81
2023/05/19 10:22:32;;;;;;;2.15;1.75;;;18.70;1.00;;;;;;6119002;23;20164;-82
2023/05/19 10:24:58;;;;;;;2.25;1.23;;;18.50;1.00;;;;;;6145746;23;20552;-81
2023/05/19 10:27:26;;;;;;;2.42;1.30;;;18.60;1.00;;;;;;6119141;23;20155;-83
2023/05/19 10:29:56;;;;;;;1.65;1.05;;;18.60;1.00;;;;;;6145670;23;20234;-81
2023/05/19 10:32:25;;;;;;;3.08;1.13;;;18.30;1.00;;;;;;6119640;23;20167;-81
2023/05/19 10:35:28;;;;;;;1.52;0.95;;;18.10;1.00;;;;;;6146272;23;20186;-81
2023/05/19 10:38:23;;;;;;;2.10;1.02;;;17.80;1.00;;;;;;6119788;23;20254;-81
2023/05/19 10:41:01;;;;;;;3.58;1.10;;;17.80;1.00;;;;;;6145454;23;20155;-82
2023/05/19 10:43:41;;;;;;;2.00;1.08;;;17.70;1.00;;;;;;6145706;23;20216;-81
2023/05/19 10:46:07;;;;;;;1.65;1.30;;;17.90;1.00;;;;;;6118946;23;20163;-81
2023/05/19 10:48:36;;;;;;;2.20;1.05;;;18.10;1.00;;;;;;6145810;23;20255;-82
2023/05/19 10:51:02;;;;;;;1.77;1.10;;;18.10;1.00;;;;;;6119742;23;20168;-81
2023/05/19 10:53:32;;;;;;;1.00;0.90;;;17.80;1.00;;;;;;6118758;23;20167;-81
2023/05/19 10:56:02;;;;;;;1.67;1.10;;;17.80;1.00;;;;;;6145278;23;20156;-82
2023/05/19 10:58:43;;;;;;;1.50;1.10;;;17.90;1.00;;;;;;6119264;23;20611;-81
2023/05/19 11:01:14;;;;;;;1.70;0.95;;;18.10;1.00;;;;;;6119624;23;20167;-82
2023/05/19 11:03:47;;;;;;;1.27;1.00;;;18.10;1.00;;;;;;6119161;23;20245;-82
2023/05/19 11:06:16;;;;;;;1.48;0.90;;;18.20;1.00;;;;;;6119941;23;20505;-81
2023/05/19 11:08:41;;;;;;;3.65;1.27;;;18.20;1.00;;;;;;6144980;23;20520;-82
2023/05/19 11:11:16;;;;;;;4.40;1.17;;;18.40;1.00;;;;;;6144722;23;20318;-81
2023/05/19 11:13:47;;;;;;;1.75;0.95;;;18.40;1.00;;;;;;6145053;23;20163;-81
2023/05/19 11:16:13;;;;;;;1.52;1.10;;;18.20;1.00;;;;;;6145000;23;20481;-83
2023/05/19 11:18:39;;;;;;;1.17;1.00;;;18.70;1.00;;;;;;6118920;23;20532;-81
2023/05/19 11:21:04;;;;;;;2.35;1.35;;;18.70;1.00;;;;;;6145355;23;20262;-82
2023/05/19 11:23:36;;;;;;;2.10;1.10;;;18.90;1.00;;;;;;6118727;23;20386;-82
2023/05/19 11:26:02;;;;;;;3.70;0.93;;;18.90;1.00;;;;;;6119010;23;20561;-81
2023/05/19 11:28:29;;;;;;;3.05;1.05;;;19.20;1.00;;;;;;6118574;23;20159;-81
2023/05/19 11:30:57;;;;;;;2.60;1.10;;;18.50;1.00;;;;;;6145085;23;20154;-81
2023/05/19 11:33:27;;;;;;;2.85;1.15;;;18.50;1.00;;;;;;6118428;23;20246;-82
2023/05/19 11:35:59;;;;;;;1.40;1.13;;;18.50;1.00;;;;;;6144736;23;20162;-82
2023/05/19 11:38:25;;;;;;;2.08;0.90;;;18.90;1.00;;;;;;6118280;23;20188;-81
2023/05/19 11:40:55;;;;;;;2.25;0.93;;;19.40;1.00;;;;;;6118912;23;20230;-81
2023/05/19 11:43:25;;;;;;;1.90;0.95;;;18.90;1.00;;;;;;6145357;23;20203;-81
2023/05/19 11:45:51;;;;;;;2.42;1.10;;;19.40;1.00;;;;;;6118052;23;20164;-82
2023/05/19 11:48:20;;;;;;;1.25;1.10;;;19.10;1.00;;;;;;6145292;23;20175;-83
2023/05/19 11:50:45;;;;;;;3.22;1.30;;;18.30;1.00;;;;;;6118933;23;20159;-81
2023/05/19 11:53:12;;;;;;;3.25;1.67;;;18.50;1.00;;;;;;6144352;23;20504;-82
2023/05/19 11:55:43;;;;;;;3.25;1.15;;;18.70;1.00;;;;;;6118232;23;20159;-81
2023/05/19 11:58:08;;;;;;;1.77;1.17;;;18.80;1.00;;;;;;6118609;23;20317;-82
2023/05/19 12:00:37;;;;;;;2.53;1.30;;;18.60;1.00;;;;;;6144483;23;20183;-81
2023/05/19 12:03:03;;;;;;;1.33;1.17;;;18.50;1.00;;;;;;6145540;23;20187;-81
2023/05/19 12:05:30;;;;;;;4.05;1.30;;;18.80;1.00;;;;;;6118471;23;20155;-81
2023/05/19 12:07:56;;;;;;;1.52;1.20;;;18.90;1.00;;;;;;6144691;23;20619;-81
2023/05/19 12:10:32;;;;;;;2.38;1.40;;;19.10;1.00;;;;;;6144564;23;20179;-81
2023/05/19 12:12:59;;;;;;;1.65;1.25;;;19.20;1.00;;;;;;6118486;23;20638;-81
2023/05/19 12:15:25;;;;;;;2.97;1.08;;;19.80;1.00;;;;;;6144865;23;20156;-81
2023/05/19 12:17:56;;;;;;;3.33;1.27;;;19.70;1.00;;;;;;6145053;23;20231;-81
2023/05/19 12:20:22;;;;;;;2.60;1.20;;;19.50;1.00;;;;;;6118735;23;20191;-81
2023/05/19 12:22:49;;;;;;;1.83;1.20;;;19.40;1.00;;;;;;6144607;23;20156;-82
2023/05/19 12:25:15;;;;;;;2.42;1.23;;;18.80;1.00;;;;;;6144628;23;20151;-82
2023/05/19 12:27:42;;;;;;;2.88;1.20;;;18.50;1.00;;;;;;6144917;23;20160;-82
2023/05/19 12:30:08;;;;;;;2.58;1.10;;;18.50;1.00;;;;;;6118230;23;20175;-82
2023/05/19 12:32:35;;;;;;;1.48;1.17;;;18.30;1.00;;;;;;6118167;23;20159;-82
2023/05/19 12:35:05;;;;;;;4.43;1.30;;;18.20;1.00;;;;;;6118086;23;20163;-83
2023/05/19 12:37:33;;;;;;;1.73;1.27;;;18.20;1.00;;;;;;6117917;23;20172;-82
2023/05/19 12:39:59;;;;;;;2.70;1.33;;;18.00;1.00;;;;;;6118754;23;20187;-81
2023/05/19 12:42:33;;;;;;;2.67;1.40;;;18.00;1.00;;;;;;6144904;23;20496;-82
2023/05/19 12:45:01;;;;;;;1.55;1.10;;;18.10;1.00;;;;;;6145448;23;20147;-81
2023/05/19 12:47:34;;;;;;;3.17;1.17;;;18.30;1.00;;;;;;6119998;23;20187;-82
2023/05/19 12:50:04;;;;;;;2.15;0.90;;;18.30;1.00;;;;;;6120468;23;20578;-82
2023/05/19 12:52:34;;;;;;;2.10;1.02;;;18.30;1.00;;;;;;6120364;23;20209;-82
2023/05/19 12:55:01;;;;;;;2.90;1.00;;;18.50;1.00;;;;;;6120319;23;20184;-82
2023/05/19 12:57:30;;;;;;;3.08;1.23;;;18.10;1.00;;;;;;6146854;23;20601;-81
2023/05/19 13:00:08;;;;;;;3.35;1.10;;;18.30;1.00;;;;;;6147817;23;20247;-84
2023/05/19 13:02:35;;;;;;;2.17;1.40;;;18.00;1.00;;;;;;6147001;23;20143;-83